Time;durP1;ratioP1;P1;durP2;ratioP2;P2;SDS_P1;SDS_P2;PMS_P1;PMS_P2;Temp;Humidity;BMP_temperature;BMP_pressure;BME280_temperature;BME280_humidity;BME280_pressure;Samples;Min_cycle;Max_cycle;Signal;HPM_P1;HPM_P2
2022/06/10 00:02:00;;;;;;;12.20;6.37;;;;;;;;;;5067429;28;20106;-61
2022/06/10 00:04:26;;;;;;;11.10;6.73;;;;;;;;;;5068717;28;20045;-61
2022/06/10 00:06:52;;;;;;;15.53;6.07;;;;;;;;;;5070134;28;20517;-61
2022/06/10 00:09:18;;;;;;;15.17;5.33;;;;;;;;;;5068300;28;20044;-61
2022/06/10 00:11:44;;;;;;;16.57;6.60;;;;;;;;;;5067703;28;20044;-61
2022/06/10 00:14:10;;;;;;;12.00;5.77;;;;;;;;;;5063559;28;20666;-62
2022/06/10 00:16:37;;;;;;;11.53;5.73;;;;;;;;;;5069040;28;20049;-62
2022/06/10 00:19:03;;;;;;;14.23;5.17;;;;;;;;;;5056268;28;20084;-62
2022/06/10 00:21:30;;;;;;;13.30;5.00;;;;;;;;;;5051907;28;20048;-62
2022/06/10 00:23:56;;;;;;;16.10;5.40;;;;;;;;;;5062381;28;20830;-62
2022/06/10 00:26:22;;;;;;;15.93;5.20;;;;;;;;;;5061616;28;20048;-62
2022/06/10 00:28:48;;;;;;;12.03;5.90;;;;;;;;;;5069036;28;20045;-62
2022/06/10 00:31:15;;;;;;;12.40;5.10;;;;;;;;;;5068612;28;20075;-61
2022/06/10 00:33:41;;;;;;;11.80;4.67;;;;;;;;;;5066630;28;20127;-62
2022/06/10 00:36:08;;;;;;;11.00;5.00;;;;;;;;;;5068193;28;20992;-62
2022/06/10 00:38:34;;;;;;;11.57;4.73;;;;;;;;;;5069345;28;20041;-61
2022/06/10 00:41:00;;;;;;;14.50;5.10;;;;;;;;;;5067247;28;20091;-62
2022/06/10 00:43:28;;;;;;;17.47;4.93;;;;;;;;;;5063007;28;20083;-61
2022/06/10 00:45:54;;;;;;;13.27;5.53;;;;;;;;;;5056596;28;20052;-61
2022/06/10 00:48:22;;;;;;;16.20;5.00;;;;;;;;;;5048923;28;20053;-61
2022/06/10 00:50:48;;;;;;;12.33;4.70;;;;;;;;;;5056677;28;20037;-61
2022/06/10 00:53:17;;;;;;;11.27;4.83;;;;;;;;;;5067785;28;20040;-61
2022/06/10 00:55:44;;;;;;;14.60;5.30;;;;;;;;;;5068504;28;20044;-62
2022/06/10 00:58:14;;;;;;;16.30;3.70;;;;;;;;;;5067165;28;20044;-61
2022/06/10 01:00:40;;;;;;;13.47;5.30;;;;;;;;;;5066483;28;20161;-61
2022/06/10 01:03:06;;;;;;;12.93;4.47;;;;;;;;;;5065802;28;20051;-62
2022/06/10 01:05:32;;;;;;;22.67;6.17;;;;;;;;;;5060464;28;20045;-61
2022/06/10 01:08:02;;;;;;;14.07;4.17;;;;;;;;;;5067756;28;20040;-62
2022/06/10 01:10:28;;;;;;;13.03;4.50;;;;;;;;;;5068215;28;20582;-61
2022/06/10 01:13:09;;;;;;;11.03;5.83;;;;;;;;;;5067672;28;20495;-61
2022/06/10 01:15:54;;;;;;;9.50;4.20;;;;;;;;;;5048777;28;20070;-61
2022/06/10 01:18:38;;;;;;;9.67;4.03;;;;;;;;;;5061235;28;20061;-61
2022/06/10 01:21:16;;;;;;;13.33;4.67;;;;;;;;;;5067135;28;20560;-62
2022/06/10 01:24:01;;;;;;;14.03;4.80;;;;;;;;;;5066243;28;20047;-61
2022/06/10 01:27:47;;;;;;;17.00;5.20;;;;;;;;;;5054676;28;20076;-61
2022/06/10 01:29:25;;;;;;;13.07;5.13;;;;;;;;;;5048732;28;20053;-61
2022/06/10 01:31:54;;;;;;;16.90;5.80;;;;;;;;;;5049688;28;20049;-61
2022/06/10 01:34:27;;;;;;;11.00;4.70;;;;;;;;;;5048616;28;20076;-61
2022/06/10 01:36:57;;;;;;;9.07;4.45;;;;;;;;;;5053439;28;20048;-61
2022/06/10 01:39:23;;;;;;;16.27;5.20;;;;;;;;;;5058984;28;20508;-61
2022/06/10 01:41:56;;;;;;;11.57;4.87;;;;;;;;;;5067549;28;20202;-61
2022/06/10 01:44:46;;;;;;;8.93;4.70;;;;;;;;;;5058050;28;20459;-61
2022/06/10 01:47:22;;;;;;;13.47;4.53;;;;;;;;;;5068392;28;20052;-61
2022/06/10 01:49:48;;;;;;;16.53;5.90;;;;;;;;;;5054874;28;20048;-62
2022/06/10 01:52:23;;;;;;;13.80;4.67;;;;;;;;;;5057190;28;20049;-61
2022/06/10 01:54:57;;;;;;;10.93;4.83;;;;;;;;;;5058703;28;20095;-62
2022/06/10 01:57:26;;;;;;;11.05;4.53;;;;;;;;;;5057071;28;20041;-61
2022/06/10 02:00:02;;;;;;;19.03;4.93;;;;;;;;;;5068867;28;20060;-61
2022/06/10 02:02:32;;;;;;;9.70;4.73;;;;;;;;;;5066526;28;20037;-61
2022/06/10 02:05:19;;;;;;;8.37;4.60;;;;;;;;;;5060777;28;20403;-61
2022/06/10 02:08:20;;;;;;;17.10;5.90;;;;;;;;;;5047697;28;20491;-62
2022/06/10 02:10:52;;;;;;;13.80;5.20;;;;;;;;;;5034407;28;20052;-61
2022/06/10 02:13:21;;;;;;;15.47;5.30;;;;;;;;;;5052432;28;20060;-61
2022/06/10 02:15:49;;;;;;;16.43;5.83;;;;;;;;;;5070817;28;20040;-61
2022/06/10 02:18:18;;;;;;;10.63;5.43;;;;;;;;;;5066259;28;20055;-61
2022/06/10 02:20:48;;;;;;;15.27;5.50;;;;;;;;;;5061593;28;20037;-61
2022/06/10 02:23:16;;;;;;;12.83;5.90;;;;;;;;;;5069919;28;20032;-61
2022/06/10 02:25:48;;;;;;;13.10;5.77;;;;;;;;;;5071543;28;20056;-61
2022/06/10 02:28:16;;;;;;;15.13;6.30;;;;;;;;;;5063823;28;20504;-62
2022/06/10 02:30:46;;;;;;;14.07;5.77;;;;;;;;;;5066288;28;20051;-62
2022/06/10 02:33:12;;;;;;;16.97;5.87;;;;;;;;;;5069875;28;20048;-62
2022/06/10 02:35:54;;;;;;;11.90;6.87;;;;;;;;;;5065536;28;20055;-62
2022/06/10 02:38:27;;;;;;;18.30;5.60;;;;;;;;;;5068061;28;20059;-61
2022/06/10 02:41:14;;;;;;;13.93;6.00;;;;;;;;;;5067634;28;20079;-62
2022/06/10 02:43:48;;;;;;;27.37;7.53;;;;;;;;;;5041447;28;20481;-62
2022/06/10 02:46:18;;;;;;;21.77;6.50;;;;;;;;;;5063417;28;20048;-61
2022/06/10 02:49:03;;;;;;;19.53;6.57;;;;;;;;;;5060871;28;20055;-61
2022/06/10 02:51:29;;;;;;;15.60;6.53;;;;;;;;;;5060438;28;20049;-62
2022/06/10 02:53:56;;;;;;;14.67;5.97;;;;;;;;;;5059114;28;20037;-61
2022/06/10 02:56:24;;;;;;;16.43;7.60;;;;;;;;;;5058430;28;20133;-61
2022/06/10 03:01:40;;;;;;;15.27;6.37;;;;;;;;;;5059904;28;20049;-61
2022/06/10 03:04:11;;;;;;;25.00;7.77;;;;;;;;;;5058270;28;20048;-61
2022/06/10 03:06:46;;;;;;;14.70;6.83;;;;;;;;;;5063567;28;20070;-62
2022/06/10 03:09:16;;;;;;;21.43;8.03;;;;;;;;;;5061042;28;20563;-62
2022/06/10 03:11:48;;;;;;;18.50;6.83;;;;;;;;;;5059516;28;20084;-62
2022/06/10 03:14:26;;;;;;;15.90;7.23;;;;;;;;;;5063166;28;20048;-61
2022/06/10 03:17:09;;;;;;;18.03;7.17;;;;;;;;;;5062378;28;20051;-62
2022/06/10 03:19:47;;;;;;;16.10;7.03;;;;;;;;;;5058680;28;20041;-62
2022/06/10 03:22:21;;;;;;;25.03;8.03;;;;;;;;;;5061512;28;20147;-62
2022/06/10 03:24:54;;;;;;;15.00;7.23;;;;;;;;;;5063762;28;20383;-62
2022/06/10 03:27:28;;;;;;;30.17;9.60;;;;;;;;;;5064635;28;20048;-62
2022/06/10 03:29:56;;;;;;;18.30;7.50;;;;;;;;;;5064574;28;20040;-62
2022/06/10 03:32:25;;;;;;;17.97;7.97;;;;;;;;;;5066367;28;20223;-62
2022/06/10 03:34:54;;;;;;;17.07;8.27;;;;;;;;;;5063968;28;20126;-62
2022/06/10 03:37:22;;;;;;;17.17;8.33;;;;;;;;;;5067252;28;20139;-62
2022/06/10 03:39:55;;;;;;;19.40;7.73;;;;;;;;;;5063874;28;20410;-62
2022/06/10 03:42:22;;;;;;;22.05;9.80;;;;;;;;;;5069742;28;20053;-62
2022/06/10 03:44:50;;;;;;;15.23;8.37;;;;;;;;;;5052972;28;20052;-62
2022/06/10 03:47:18;;;;;;;22.90;8.83;;;;;;;;;;5049618;28;20098;-62
2022/06/10 03:49:48;;;;;;;18.77;8.00;;;;;;;;;;5058556;28;20041;-62
2022/06/10 03:52:19;;;;;;;17.90;9.00;;;;;;;;;;5053383;28;20048;-62
2022/06/10 03:54:45;;;;;;;18.40;8.90;;;;;;;;;;5068962;28;20135;-62
2022/06/10 03:57:11;;;;;;;15.50;7.37;;;;;;;;;;5062159;28;20048;-61
2022/06/10 03:59:37;;;;;;;14.90;7.07;;;;;;;;;;5050211;28;20143;-61
2022/06/10 04:02:03;;;;;;;15.57;7.27;;;;;;;;;;5051173;28;20711;-61
2022/06/10 04:04:29;;;;;;;19.73;8.87;;;;;;;;;;5068141;28;20087;-61
2022/06/10 04:06:56;;;;;;;22.93;7.27;;;;;;;;;;5056180;28;20088;-61
2022/06/10 04:09:22;;;;;;;20.07;7.27;;;;;;;;;;5065904;28;20414;-61
2022/06/10 04:11:48;;;;;;;17.00;7.57;;;;;;;;;;5069390;28;20044;-62
2022/06/10 04:14:14;;;;;;;17.20;7.00;;;;;;;;;;5052260;28;20057;-62
2022/06/10 04:16:40;;;;;;;17.00;7.50;;;;;;;;;;5055420;28;20754;-62
2022/06/10 04:19:07;;;;;;;17.10;7.03;;;;;;;;;;5059492;28;20048;-62
2022/06/10 04:21:33;;;;;;;13.70;6.80;;;;;;;;;;5058123;28;20414;-62
2022/06/10 04:23:59;;;;;;;18.60;6.60;;;;;;;;;;5057675;28;20627;-62
2022/06/10 04:26:25;;;;;;;14.23;6.03;;;;;;;;;;5055485;28;20072;-62
2022/06/10 04:28:51;;;;;;;16.10;7.73;;;;;;;;;;5055628;28;20040;-62
2022/06/10 04:31:18;;;;;;;12.20;6.30;;;;;;;;;;5064093;28;20105;-62
2022/06/10 04:33:44;;;;;;;16.90;6.13;;;;;;;;;;5049470;28;20145;-62
2022/06/10 04:36:13;;;;;;;16.00;6.53;;;;;;;;;;5057402;28;20055;-62
2022/06/10 04:38:39;;;;;;;15.23;6.90;;;;;;;;;;5057767;28;20040;-62
2022/06/10 04:41:06;;;;;;;16.10;6.20;;;;;;;;;;5059379;28;20053;-62
2022/06/10 04:43:33;;;;;;;17.40;6.47;;;;;;;;;;5055577;28;20142;-62
2022/06/10 04:46:01;;;;;;;14.27;5.97;;;;;;;;;;5049215;28;20107;-62
2022/06/10 04:48:27;;;;;;;14.77;5.90;;;;;;;;;;5055533;28;20051;-62
2022/06/10 04:50:53;;;;;;;18.17;5.87;;;;;;;;;;5054277;28;20505;-61
2022/06/10 04:53:19;;;;;;;10.30;5.60;;;;;;;;;;5048842;28;20048;-62
2022/06/10 04:55:46;;;;;;;20.33;5.70;;;;;;;;;;5056841;28;20049;-62
2022/06/10 04:58:12;;;;;;;18.63;6.67;;;;;;;;;;5058615;28;20090;-62
2022/06/10 05:00:41;;;;;;;13.37;5.30;;;;;;;;;;5067808;28;20425;-62
2022/06/10 05:03:08;;;;;;;14.73;5.07;;;;;;;;;;5054827;28;20040;-62
2022/06/10 05:05:34;;;;;;;12.60;5.30;;;;;;;;;;5052192;28;20059;-62
2022/06/10 05:08:00;;;;;;;16.17;4.80;;;;;;;;;;5067310;28;20076;-62
2022/06/10 05:10:27;;;;;;;23.77;5.40;;;;;;;;;;5055999;28;20119;-62
2022/06/10 05:12:53;;;;;;;18.87;5.53;;;;;;;;;;5055502;28;20037;-62
2022/06/10 05:15:20;;;;;;;13.47;5.23;;;;;;;;;;5061650;28;20036;-62
2022/06/10 05:17:46;;;;;;;9.80;4.23;;;;;;;;;;5063403;28;20040;-62
2022/06/10 05:20:16;;;;;;;14.33;5.30;;;;;;;;;;5051804;28;20044;-62
2022/06/10 05:22:42;;;;;;;10.73;5.50;;;;;;;;;;5057180;28;20040;-62
2022/06/10 05:25:09;;;;;;;14.07;4.90;;;;;;;;;;5058162;28;20099;-62
2022/06/10 05:27:35;;;;;;;12.43;4.53;;;;;;;;;;5066447;28;20044;-62
2022/06/10 05:30:01;;;;;;;9.67;4.40;;;;;;;;;;5054512;28;20046;-62
2022/06/10 05:32:27;;;;;;;16.27;4.90;;;;;;;;;;5054259;28;20115;-62
2022/06/10 05:34:53;;;;;;;10.30;4.57;;;;;;;;;;5055529;28;20123;-62
2022/06/10 05:37:21;;;;;;;11.87;4.50;;;;;;;;;;5055765;28;20467;-62
2022/06/10 05:39:47;;;;;;;11.20;4.47;;;;;;;;;;5056624;28;20079;-62
2022/06/10 05:42:14;;;;;;;11.63;3.87;;;;;;;;;;5055511;28;20053;-62
2022/06/10 05:44:41;;;;;;;13.17;4.30;;;;;;;;;;5063812;28;20049;-62
2022/06/10 05:47:08;;;;;;;9.80;4.60;;;;;;;;;;5066221;28;20075;-62
2022/06/10 05:49:39;;;;;;;13.30;4.40;;;;;;;;;;5065101;28;20051;-62
2022/06/10 05:52:06;;;;;;;8.87;4.13;;;;;;;;;;5050875;28;20047;-62
2022/06/10 05:54:32;;;;;;;16.97;5.10;;;;;;;;;;5059586;28;20059;-62
2022/06/10 05:56:58;;;;;;;13.57;4.00;;;;;;;;;;5056603;28;20063;-62
2022/06/10 05:59:24;;;;;;;13.00;3.87;;;;;;;;;;5061363;28;20183;-62
2022/06/10 06:01:50;;;;;;;9.90;3.70;;;;;;;;;;5063306;28;20114;-62
2022/06/10 06:04:16;;;;;;;17.07;3.90;;;;;;;;;;5061589;28;20048;-62
2022/06/10 06:06:43;;;;;;;11.27;3.80;;;;;;;;;;5054077;28;20041;-62
2022/06/10 06:09:10;;;;;;;14.13;4.30;;;;;;;;;;5049272;28;20633;-62
2022/06/10 06:11:36;;;;;;;12.57;4.40;;;;;;;;;;5063022;28;20140;-62
2022/06/10 06:14:02;;;;;;;9.67;4.53;;;;;;;;;;5063658;28;20049;-62
2022/06/10 06:16:28;;;;;;;13.87;3.87;;;;;;;;;;5066470;28;20044;-62
2022/06/10 06:18:54;;;;;;;13.67;4.07;;;;;;;;;;5051791;28;20044;-62
2022/06/10 06:21:20;;;;;;;17.67;4.13;;;;;;;;;;5065732;28;20049;-62
2022/06/10 06:23:46;;;;;;;15.03;4.83;;;;;;;;;;5064745;28;20036;-62
2022/06/10 06:26:16;;;;;;;14.53;4.70;;;;;;;;;;5066020;28;20110;-62
2022/06/10 06:28:43;;;;;;;14.27;5.00;;;;;;;;;;5067257;28;20052;-62
2022/06/10 06:31:09;;;;;;;17.87;6.30;;;;;;;;;;5067495;28;20051;-62
2022/06/10 06:33:36;;;;;;;16.53;5.23;;;;;;;;;;5066724;28;20501;-62
2022/06/10 06:36:02;;;;;;;15.07;5.77;;;;;;;;;;5056513;28;20044;-62
2022/06/10 06:38:28;;;;;;;18.20;6.50;;;;;;;;;;5047654;28;20091;-62
2022/06/10 06:40:54;;;;;;;16.90;6.60;;;;;;;;;;5053092;28;20060;-62
2022/06/10 06:43:20;;;;;;;19.00;6.20;;;;;;;;;;5050649;28;20044;-62
2022/06/10 06:45:46;;;;;;;17.80;7.87;;;;;;;;;;5053412;28;20051;-62
2022/06/10 06:48:13;;;;;;;14.90;6.73;;;;;;;;;;5056402;28;20055;-62
2022/06/10 06:50:42;;;;;;;17.27;7.00;;;;;;;;;;5063268;28;20051;-62
2022/06/10 06:53:08;;;;;;;15.03;6.33;;;;;;;;;;5059292;28;20044;-62
2022/06/10 06:55:35;;;;;;;16.37;6.33;;;;;;;;;;5050440;28;20049;-62
2022/06/10 06:58:01;;;;;;;13.50;6.03;;;;;;;;;;5064255;28;20047;-62
2022/06/10 07:00:27;;;;;;;20.37;5.77;;;;;;;;;;5058797;28;20464;-62
2022/06/10 07:02:54;;;;;;;12.57;5.63;;;;;;;;;;5057132;28;20044;-62
2022/06/10 07:05:20;;;;;;;11.30;4.70;;;;;;;;;;5065467;28;20047;-62
2022/06/10 07:07:46;;;;;;;11.73;4.90;;;;;;;;;;5067103;28;20045;-62
2022/06/10 07:10:16;;;;;;;13.40;5.50;;;;;;;;;;5058004;28;20045;-62
2022/06/10 07:12:42;;;;;;;10.93;4.40;;;;;;;;;;5061509;28;20040;-63
2022/06/10 07:15:09;;;;;;;12.90;4.47;;;;;;;;;;5058225;28;20105;-63
2022/06/10 07:17:35;;;;;;;10.87;4.13;;;;;;;;;;5060407;28;21085;-62
2022/06/10 07:20:02;;;;;;;11.73;3.97;;;;;;;;;;5056452;28;20041;-62
2022/06/10 07:22:28;;;;;;;9.53;4.13;;;;;;;;;;5059462;28;20067;-62
2022/06/10 07:24:54;;;;;;;11.43;3.80;;;;;;;;;;5065503;28;20049;-62
2022/06/10 07:27:21;;;;;;;9.67;4.10;;;;;;;;;;5056490;28;20044;-62
2022/06/10 07:29:47;;;;;;;13.10;4.97;;;;;;;;;;5070726;28;20136;-62
2022/06/10 07:32:13;;;;;;;9.30;3.67;;;;;;;;;;5067812;28;20080;-62
2022/06/10 07:34:39;;;;;;;10.03;4.23;;;;;;;;;;5050849;28;20061;-62
2022/06/10 07:37:06;;;;;;;10.80;3.83;;;;;;;;;;5059504;28;20044;-62
2022/06/10 07:39:33;;;;;;;9.63;3.27;;;;;;;;;;5052409;28;20045;-62
2022/06/10 07:42:01;;;;;;;13.77;3.47;;;;;;;;;;5060570;28;20462;-62
2022/06/10 07:44:29;;;;;;;12.13;3.33;;;;;;;;;;5068648;28;20056;-62
2022/06/10 07:46:56;;;;;;;10.70;2.87;;;;;;;;;;5069843;28;20090;-62
2022/06/10 07:49:22;;;;;;;8.50;3.30;;;;;;;;;;5070281;28;20083;-62
2022/06/10 07:51:48;;;;;;;11.33;3.30;;;;;;;;;;5069689;28;20093;-62
2022/06/10 07:54:15;;;;;;;12.37;3.13;;;;;;;;;;5069683;28;20395;-62
2022/06/10 07:56:41;;;;;;;10.77;2.60;;;;;;;;;;5070310;28;20445;-62
2022/06/10 07:59:08;;;;;;;7.37;2.83;;;;;;;;;;5063089;28;20502;-62
2022/06/10 08:01:34;;;;;;;12.20;3.57;;;;;;;;;;5064199;28;20040;-61
2022/06/10 08:04:00;;;;;;;9.83;3.10;;;;;;;;;;5067970;28;20052;-62
2022/06/10 08:06:28;;;;;;;9.10;3.03;;;;;;;;;;5067157;28;20463;-62
2022/06/10 08:08:54;;;;;;;13.47;2.83;;;;;;;;;;5059000;28;20040;-62
2022/06/10 08:11:20;;;;;;;11.90;3.20;;;;;;;;;;5069225;28;20060;-62
2022/06/10 08:13:47;;;;;;;10.57;3.20;;;;;;;;;;5057617;28;20044;-62
2022/06/10 08:16:13;;;;;;;9.07;2.93;;;;;;;;;;5064569;28;20038;-62
2022/06/10 08:18:39;;;;;;;9.43;2.90;;;;;;;;;;5069991;28;20110;-62
2022/06/10 08:23:51;;;;;;;13.23;3.50;;;;;;;;;;5061274;28;20132;-62
2022/06/10 08:26:17;;;;;;;11.53;3.00;;;;;;;;;;5054061;28;20135;-62
2022/06/10 08:28:44;;;;;;;12.13;3.07;;;;;;;;;;5058690;28;20036;-62
2022/06/10 08:31:11;;;;;;;7.10;3.20;;;;;;;;;;5069645;28;20052;-62
2022/06/10 08:33:37;;;;;;;14.90;3.07;;;;;;;;;;5059480;28;20049;-62
2022/06/10 08:36:03;;;;;;;10.90;3.20;;;;;;;;;;5050223;28;20079;-62
2022/06/10 08:38:29;;;;;;;10.57;3.20;;;;;;;;;;5052047;28;20041;-62
2022/06/10 08:41:03;;;;;;;8.00;3.43;;;;;;;;;;5067900;28;20175;-62
2022/06/10 08:43:47;;;;;;;8.07;2.80;;;;;;;;;;5058819;28;20091;-62
2022/06/10 08:46:23;;;;;;;10.90;3.30;;;;;;;;;;5063583;28;20055;-62
2022/06/10 08:48:52;;;;;;;10.97;3.37;;;;;;;;;;5068484;28;20071;-62
2022/06/10 08:51:29;;;;;;;10.40;3.10;;;;;;;;;;5062630;28;20151;-62
2022/06/10 08:54:16;;;;;;;8.60;3.33;;;;;;;;;;5053205;28;20122;-62
2022/06/10 08:56:47;;;;;;;11.23;3.77;;;;;;;;;;5053141;28;20044;-62
2022/06/10 08:59:22;;;;;;;10.17;2.87;;;;;;;;;;5048989;28;20045;-62
2022/06/10 09:01:54;;;;;;;13.10;3.70;;;;;;;;;;5068541;28;20048;-62
2022/06/10 09:04:20;;;;;;;11.05;3.33;;;;;;;;;;5063187;28;20049;-62
2022/06/10 09:06:51;;;;;;;6.83;2.50;;;;;;;;;;5054409;28;20045;-62
2022/06/10 09:09:18;;;;;;;11.03;2.90;;;;;;;;;;5057250;28;20055;-62
2022/06/10 09:11:44;;;;;;;7.30;2.80;;;;;;;;;;5049293;28;20044;-62
2022/06/10 09:14:16;;;;;;;12.50;2.67;;;;;;;;;;5067828;28;20506;-62
2022/06/10 09:16:48;;;;;;;11.73;3.87;;;;;;;;;;5068023;28;20044;-62
2022/06/10 09:19:34;;;;;;;10.20;2.50;;;;;;;;;;5058530;28;20393;-62
2022/06/10 09:22:12;;;;;;;9.67;3.00;;;;;;;;;;5055871;28;20399;-62
2022/06/10 09:24:41;;;;;;;12.47;2.93;;;;;;;;;;5060384;28;20044;-62
2022/06/10 09:27:17;;;;;;;11.27;2.80;;;;;;;;;;5056710;28;20495;-62
2022/06/10 09:29:43;;;;;;;9.23;2.33;;;;;;;;;;5048569;28;20078;-62
2022/06/10 09:32:32;;;;;;;9.03;2.80;;;;;;;;;;5060916;28;20040;-62
2022/06/10 09:35:03;;;;;;;9.17;2.40;;;;;;;;;;5063076;28;20052;-62
2022/06/10 09:37:32;;;;;;;9.83;2.70;;;;;;;;;;5066902;28;20091;-62
2022/06/10 09:42:53;;;;;;;14.90;2.83;;;;;;;;;;5066807;28;20095;-62
2022/06/10 09:45:25;;;;;;;8.90;2.67;;;;;;;;;;5057157;28;20044;-62
2022/06/10 09:48:18;;;;;;;8.17;2.57;;;;;;;;;;5050360;28;20478;-62
2022/06/10 09:50:50;;;;;;;7.57;2.53;;;;;;;;;;5047740;28;20484;-62
2022/06/10 09:53:36;;;;;;;9.80;2.30;;;;;;;;;;5068661;28;20052;-62
2022/06/10 09:56:05;;;;;;;8.23;2.27;;;;;;;;;;5065298;28;20182;-62
2022/06/10 09:58:46;;;;;;;9.27;2.47;;;;;;;;;;5051374;28;20523;-62
2022/06/10 10:01:26;;;;;;;12.20;3.43;;;;;;;;;;5061115;28;20049;-62
2022/06/10 10:04:00;;;;;;;11.43;2.30;;;;;;;;;;5052669;28;20106;-62
2022/06/10 10:06:33;;;;;;;7.80;2.47;;;;;;;;;;5060809;28;20139;-62
2022/06/10 10:08:59;;;;;;;13.85;2.78;;;;;;;;;;5051735;28;20623;-62
2022/06/10 10:11:28;;;;;;;8.97;2.93;;;;;;;;;;5065947;28;20490;-62
2022/06/10 10:13:57;;;;;;;9.43;3.70;;;;;;;;;;5060858;28;20072;-62
2022/06/10 10:16:23;;;;;;;14.60;3.43;;;;;;;;;;5062446;28;20044;-62
2022/06/10 10:18:52;;;;;;;9.77;3.63;;;;;;;;;;5066997;28;20063;-62
2022/06/10 10:21:24;;;;;;;11.27;3.10;;;;;;;;;;5065445;28;20137;-62
2022/06/10 10:23:51;;;;;;;9.07;2.93;;;;;;;;;;5065940;28;20044;-62
2022/06/10 10:26:21;;;;;;;11.33;3.43;;;;;;;;;;5065946;28;20142;-62
2022/06/10 10:28:48;;;;;;;10.70;3.27;;;;;;;;;;5065601;28;20049;-62
2022/06/10 10:31:23;;;;;;;8.60;3.30;;;;;;;;;;5066661;28;20048;-62
2022/06/10 10:33:50;;;;;;;8.50;3.10;;;;;;;;;;5067634;28;20048;-62
2022/06/10 10:36:21;;;;;;;7.95;3.03;;;;;;;;;;5069378;28;20362;-62
2022/06/10 10:38:48;;;;;;;11.30;2.78;;;;;;;;;;5058217;28;20403;-62
2022/06/10 10:41:17;;;;;;;10.73;3.22;;;;;;;;;;5051511;28;20132;-62
2022/06/10 10:43:44;;;;;;;8.02;3.00;;;;;;;;;;5051057;28;20183;-62
2022/06/10 10:46:30;;;;;;;10.40;2.83;;;;;;;;;;5051041;28;20049;-62
2022/06/10 10:48:57;;;;;;;10.60;3.00;;;;;;;;;;5044654;28;20045;-62
2022/06/10 10:51:31;;;;;;;7.88;3.33;;;;;;;;;;5054435;28;20044;-62
2022/06/10 10:54:02;;;;;;;8.13;3.03;;;;;;;;;;5062084;28;20056;-62
2022/06/10 10:56:34;;;;;;;7.40;3.00;;;;;;;;;;5071319;28;20101;-62
2022/06/10 10:59:00;;;;;;;8.05;3.08;;;;;;;;;;5068932;28;20426;-62
2022/06/10 11:01:44;;;;;;;8.75;2.92;;;;;;;;;;5070559;28;20041;-62
2022/06/10 11:04:25;;;;;;;8.38;3.33;;;;;;;;;;5068829;28;20059;-62
2022/06/10 11:07:03;;;;;;;11.55;2.42;;;;;;;;;;5064868;28;20090;-62
2022/06/10 11:09:29;;;;;;;8.55;2.85;;;;;;;;;;5050358;28;20048;-62
2022/06/10 11:11:56;;;;;;;7.63;2.40;;;;;;;;;;5058174;28;20094;-62
2022/06/10 11:14:40;;;;;;;11.07;2.65;;;;;;;;;;5064772;28;20503;-62
2022/06/10 11:17:11;;;;;;;9.43;2.75;;;;;;;;;;5059739;28;20047;-62
2022/06/10 11:19:37;;;;;;;11.10;2.28;;;;;;;;;;5064109;28;20065;-62
2022/06/10 11:22:15;;;;;;;9.00;2.05;;;;;;;;;;5050622;28;20045;-62
2022/06/10 11:24:45;;;;;;;7.35;2.53;;;;;;;;;;5050518;28;20100;-62
2022/06/10 11:27:23;;;;;;;8.27;2.33;;;;;;;;;;5052504;28;20076;-62
2022/06/10 11:29:57;;;;;;;7.68;2.00;;;;;;;;;;5050931;28;20569;-62
2022/06/10 11:32:25;;;;;;;9.30;2.50;;;;;;;;;;5050554;28;20052;-62
2022/06/10 11:35:00;;;;;;;16.52;2.72;;;;;;;;;;5053112;28;20086;-62
2022/06/10 11:37:29;;;;;;;8.77;2.67;;;;;;;;;;5050466;28;20079;-62
2022/06/10 11:40:11;;;;;;;10.95;2.40;;;;;;;;;;5064260;28;20070;-62
2022/06/10 11:42:42;;;;;;;8.73;2.20;;;;;;;;;;5057834;28;20635;-62
2022/06/10 11:45:16;;;;;;;8.75;2.88;;;;;;;;;;5057628;28;20049;-62
2022/06/10 11:47:47;;;;;;;7.60;2.22;;;;;;;;;;5060117;28;20045;-62
2022/06/10 11:50:19;;;;;;;9.25;2.00;;;;;;;;;;5060773;28;20081;-62
2022/06/10 11:52:54;;;;;;;9.20;2.20;;;;;;;;;;5050316;28;20094;-62
2022/06/10 11:55:27;;;;;;;9.70;2.90;;;;;;;;;;5049951;28;20107;-62
2022/06/10 12:01:03;;;;;;;7.05;1.67;;;;;;;;;;5061127;28;20419;-62
2022/06/10 12:03:29;;;;;;;;;;;;;;;;;;5050385;28;20045;-62
2022/06/10 12:06:04;;;;;;;8.00;2.35;;;;;;;;;;5058571;28;20260;-62
2022/06/10 12:08:30;;;;;;;8.02;2.72;;;;;;;;;;5056704;28;20052;-62
2022/06/10 12:11:06;;;;;;;6.70;2.00;;;;;;;;;;5069744;28;20052;-62
2022/06/10 12:13:37;;;;;;;11.55;2.05;;;;;;;;;;5068307;28;20044;-62
2022/06/10 12:16:04;;;;;;;13.98;2.88;;;;;;;;;;5070083;28;20045;-62
2022/06/10 12:18:31;;;;;;;11.75;2.88;;;;;;;;;;5069560;28;20414;-62
2022/06/10 12:20:59;;;;;;;8.90;2.38;;;;;;;;;;5070159;28;20098;-62
2022/06/10 12:23:27;;;;;;;9.27;2.13;;;;;;;;;;5066390;28;20045;-62
2022/06/10 12:26:11;;;;;;;9.97;2.47;;;;;;;;;;5069862;28;20040;-62
2022/06/10 12:28:42;;;;;;;11.30;2.80;;;;;;;;;;5069628;28;20079;-62
2022/06/10 12:31:20;;;;;;;10.17;3.20;;;;;;;;;;5069529;28;20486;-62
2022/06/10 12:34:15;;;;;;;9.97;2.33;;;;;;;;;;5065908;28;20503;-62
2022/06/10 12:36:44;;;;;;;12.20;2.77;;;;;;;;;;5012019;28;20080;-62
2022/06/10 12:39:19;;;;;;;11.90;2.67;;;;;;;;;;5066539;28;20041;-62
2022/06/10 12:41:47;;;;;;;8.45;2.40;;;;;;;;;;5064573;28;20537;-62
2022/06/10 12:44:18;;;;;;;8.32;2.00;;;;;;;;;;5056955;28;20406;-62
2022/06/10 12:47:14;;;;;;;13.98;2.80;;;;;;;;;;5068737;28;20049;-62
2022/06/10 12:49:44;;;;;;;11.68;2.10;;;;;;;;;;5063095;28;20135;-62
2022/06/10 12:52:16;;;;;;;8.82;2.97;;;;;;;;;;5052141;28;20036;-62
2022/06/10 12:54:48;;;;;;;7.77;2.30;;;;;;;;;;5057940;28;20075;-62
2022/06/10 12:57:28;;;;;;;7.93;2.25;;;;;;;;;;5056469;28;20542;-62
2022/06/10 13:00:13;;;;;;;7.53;2.20;;;;;;;;;;5061009;28;20048;-62
2022/06/10 13:02:47;;;;;;;7.35;1.70;;;;;;;;;;5055715;28;20154;-62
2022/06/10 13:05:18;;;;;;;11.77;2.78;;;;;;;;;;5055757;28;20123;-62
2022/06/10 13:07:44;;;;;;;10.05;2.67;;;;;;;;;;5062174;28;20520;-62
2022/06/10 13:10:33;;;;;;;11.35;2.30;;;;;;;;;;5059433;28;20036;-62
2022/06/10 13:13:05;;;;;;;5.45;2.25;;;;;;;;;;5056871;28;20467;-62
2022/06/10 13:15:31;;;;;;;10.30;2.83;;;;;;;;;;5052350;28;20049;-62
2022/06/10 13:18:18;;;;;;;8.25;2.33;;;;;;;;;;5057614;28;20139;-62
2022/06/10 13:20:45;;;;;;;5.55;2.10;;;;;;;;;;5059419;28;20453;-62
2022/06/10 13:23:12;;;;;;;10.48;2.83;;;;;;;;;;5067477;28;20117;-62
2022/06/10 13:25:39;;;;;;;9.57;2.72;;;;;;;;;;5068097;28;20056;-62
2022/06/10 13:28:16;;;;;;;9.15;2.05;;;;;;;;;;5066957;28;20082;-62
2022/06/10 13:30:42;;;;;;;7.25;2.00;;;;;;;;;;5063690;28;20398;-62
2022/06/10 13:33:15;;;;;;;7.90;2.30;;;;;;;;;;5067509;28;20048;-62
2022/06/10 13:35:44;;;;;;;6.75;2.00;;;;;;;;;;5064885;28;20044;-62
2022/06/10 13:38:14;;;;;;;11.20;1.98;;;;;;;;;;5060430;28;20079;-62
2022/06/10 13:40:46;;;;;;;7.25;2.33;;;;;;;;;;5066432;28;21015;-62
2022/06/10 13:43:17;;;;;;;10.55;2.28;;;;;;;;;;5066683;28;20052;-62
2022/06/10 13:45:45;;;;;;;8.23;2.30;;;;;;;;;;5067084;28;20048;-61
2022/06/10 13:48:13;;;;;;;13.10;2.97;;;;;;;;;;5066703;28;20447;-61
2022/06/10 13:51:12;;;;;;;11.43;2.83;;;;;;;;;;5052558;28;20053;-62
2022/06/10 13:53:44;;;;;;;6.50;2.15;;;;;;;;;;5067662;28;21098;-62
2022/06/10 13:56:14;;;;;;;9.38;2.42;;;;;;;;;;5062683;28;20094;-62
2022/06/10 13:58:45;;;;;;;9.02;2.45;;;;;;;;;;5065497;28;20066;-61
2022/06/10 14:01:19;;;;;;;5.90;2.10;;;;;;;;;;5065932;28;20422;-62
2022/06/10 14:03:53;;;;;;;7.47;2.25;;;;;;;;;;5065178;28;20078;-62
2022/06/10 14:06:19;;;;;;;7.38;2.42;;;;;;;;;;5067496;28;20743;-62
2022/06/10 14:08:56;;;;;;;7.32;1.98;;;;;;;;;;5066800;28;20087;-62
2022/06/10 14:11:27;;;;;;;4.80;1.80;;;;;;;;;;5072190;28;20390;-62
2022/06/10 14:13:55;;;;;;;13.15;2.25;;;;;;;;;;5073874;28;20482;-62
2022/06/10 14:16:22;;;;;;;7.20;2.03;;;;;;;;;;5057921;28;20039;-62
2022/06/10 14:18:49;;;;;;;5.00;2.00;;;;;;;;;;5066488;28;20045;-62
2022/06/10 14:21:15;;;;;;;6.45;1.88;;;;;;;;;;5069810;28;20128;-62
2022/06/10 14:24:00;;;;;;;4.95;2.00;;;;;;;;;;5070710;28;20048;-62
2022/06/10 14:26:28;;;;;;;4.97;1.45;;;;;;;;;;5060392;28;20502;-62
2022/06/10 14:29:06;;;;;;;7.55;1.75;;;;;;;;;;5072901;28;20041;-62
2022/06/10 14:31:35;;;;;;;5.00;1.55;;;;;;;;;;5073823;28;20077;-62
2022/06/10 14:34:02;;;;;;;7.60;2.30;;;;;;;;;;5073853;28;20044;-62
2022/06/10 14:36:29;;;;;;;5.45;1.70;;;;;;;;;;5063109;28;20080;-62
2022/06/10 14:39:07;;;;;;;7.53;1.60;;;;;;;;;;5066185;28;20045;-62
2022/06/10 14:41:34;;;;;;;4.95;1.67;;;;;;;;;;5073660;28;20143;-62
2022/06/10 14:44:03;;;;;;;4.75;1.45;;;;;;;;;;5073576;28;20060;-62
2022/06/10 14:46:30;;;;;;;6.80;2.22;;;;;;;;;;5059160;28;20048;-62
2022/06/10 14:48:56;;;;;;;5.97;2.08;;;;;;;;;;5064171;28;20032;-62
2022/06/10 14:51:22;;;;;;;9.02;2.15;;;;;;;;;;5074500;28;20044;-62
2022/06/10 14:53:53;;;;;;;7.32;1.95;;;;;;;;;;5072330;28;20040;-62
2022/06/10 14:56:19;;;;;;;5.75;2.15;;;;;;;;;;5071546;28;20141;-62
2022/06/10 14:58:46;;;;;;;7.22;1.88;;;;;;;;;;5067093;28;20048;-62
2022/06/10 15:01:19;;;;;;;5.57;2.05;;;;;;;;;;5062538;28;20083;-62
2022/06/10 15:03:45;;;;;;;5.75;1.92;;;;;;;;;;5054615;28;20048;-62
2022/06/10 15:06:21;;;;;;;7.68;2.00;;;;;;;;;;5056902;28;20210;-62